RYR23ML LIMF-LICT
Flight info
| Callsign | RYR23ML |
|---|---|
| Flight time | 1h 21m |
| Altitude | 37000 |
| Route | LAGEN DCT EVROG DCT BAKRO DCT VELAD DCT TINTO DCT POKAV DCT BETOT DCT RUVIP DCT RONAB M740 ADUKA |
| Aircraft | B738/M-SDE3FGILRWY/SB1 |
Departure
| Time | 2026-05-05 18:46 |
|---|---|
| Airport | Turin Airport (LIMF) |
Arrival
| Time | 2026-05-05 20:08 |
|---|---|
| Airport | Vincenzo Florio Airport Trapani-Birgi (LICT) |
| Time | Latitude | Longitude | Altitude | Speed | Heading |
|---|---|---|---|---|---|
| 2026-05-05 18:20 | 45.19072 | 7.64555 | 946 ft | 0 kts | 259° |
| 2026-05-05 18:41 | 45.19073 | 7.64565 | 947 ft | 2 kts | 255° |
| 2026-05-05 18:41 | 45.19077 | 7.64588 | 948 ft | 2 kts | 256° |
| 2026-05-05 18:41 | 45.19081 | 7.64611 | 948 ft | 2 kts | 252° |
| 2026-05-05 18:41 | 45.19087 | 7.64632 | 947 ft | 2 kts | 243° |
| 2026-05-05 18:42 | 45.19097 | 7.64651 | 946 ft | 2 kts | 212° |
| 2026-05-05 18:42 | 45.19110 | 7.64658 | 947 ft | 1 kts | 182° |
| 2026-05-05 18:42 | 45.19113 | 7.64658 | 947 ft | 0 kts | 181° |
| 2026-05-05 18:43 | 45.19110 | 7.64658 | 947 ft | 3 kts | 181° |
| 2026-05-05 18:44 | 45.19061 | 7.64656 | 947 ft | 10 kts | 181° |
| 2026-05-05 18:44 | 45.18984 | 7.64673 | 946 ft | 12 kts | 137° |
| 2026-05-05 18:44 | 45.18970 | 7.64740 | 945 ft | 0 kts | 92° |
| 2026-05-05 18:44 | 45.18970 | 7.64747 | 945 ft | 1 kts | 91° |
| 2026-05-05 18:45 | 45.18970 | 7.64757 | 944 ft | 2 kts | 91° |
| 2026-05-05 18:45 | 45.18969 | 7.64824 | 943 ft | 12 kts | 90° |
| 2026-05-05 18:45 | 45.19022 | 7.64897 | 946 ft | 12 kts | 3° |
| 2026-05-05 18:45 | 45.19253 | 7.64912 | 952 ft | 67 kts | 2° |
| 2026-05-05 18:46 | 45.19958 | 7.64957 | 963 ft | 133 kts | 2° |
| 2026-05-05 18:46 | 45.21036 | 7.65009 | 1218 ft | 165 kts | 3° |
| 2026-05-05 18:46 | 45.22204 | 7.65110 | 1943 ft | 171 kts | 4° |
| 2026-05-05 18:46 | 45.23384 | 7.65188 | 2846 ft | 170 kts | 2° |
| 2026-05-05 18:47 | 45.24669 | 7.65263 | 3269 ft | 201 kts | 2° |
| 2026-05-05 18:47 | 45.26106 | 7.65505 | 3663 ft | 221 kts | 21° |
| 2026-05-05 18:47 | 45.27314 | 7.66954 | 4007 ft | 241 kts | 60° |
| 2026-05-05 18:47 | 45.27721 | 7.69349 | 4410 ft | 262 kts | 96° |
| 2026-05-05 18:48 | 45.27229 | 7.71815 | 5248 ft | 267 kts | 112° |
| 2026-05-05 18:48 | 45.26541 | 7.74287 | 6181 ft | 270 kts | 112° |
| 2026-05-05 18:48 | 45.25848 | 7.76773 | 7036 ft | 274 kts | 118° |
| 2026-05-05 18:48 | 45.24566 | 7.78742 | 7841 ft | 274 kts | 148° |
| 2026-05-05 18:49 | 45.22921 | 7.80146 | 8741 ft | 276 kts | 152° |
| 2026-05-05 18:49 | 45.21231 | 7.81513 | 9579 ft | 281 kts | 152° |
| 2026-05-05 18:49 | 45.19518 | 7.82895 | 10340 ft | 288 kts | 152° |
| 2026-05-05 18:49 | 45.17706 | 7.84370 | 10583 ft | 314 kts | 152° |
| 2026-05-05 18:50 | 45.15764 | 7.85968 | 11008 ft | 329 kts | 152° |
| 2026-05-05 18:50 | 45.13769 | 7.87629 | 11746 ft | 335 kts | 152° |
| 2026-05-05 18:50 | 45.11818 | 7.89266 | 12540 ft | 338 kts | 152° |
| 2026-05-05 18:50 | 45.09744 | 7.91013 | 13360 ft | 342 kts | 153° |
| 2026-05-05 18:51 | 45.07686 | 7.92750 | 13850 ft | 346 kts | 153° |
| 2026-05-05 18:51 | 45.05620 | 7.94496 | 13935 ft | 345 kts | 153° |
| 2026-05-05 18:51 | 45.03554 | 7.96243 | 13958 ft | 346 kts | 153° |
| 2026-05-05 18:51 | 45.01482 | 7.97994 | 13975 ft | 348 kts | 153° |
| 2026-05-05 18:52 | 44.99387 | 7.99762 | 14362 ft | 354 kts | 153° |
| 2026-05-05 18:52 | 44.97277 | 8.01544 | 15235 ft | 351 kts | 153° |
| 2026-05-05 18:52 | 44.95179 | 8.03314 | 16043 ft | 352 kts | 154° |
| 2026-05-05 18:52 | 44.93070 | 8.05090 | 16764 ft | 355 kts | 154° |
| 2026-05-05 18:53 | 44.90939 | 8.06882 | 17462 ft | 359 kts | 154° |
| 2026-05-05 18:53 | 44.88794 | 8.08685 | 18174 ft | 362 kts | 154° |
| 2026-05-05 18:53 | 44.86619 | 8.10512 | 18809 ft | 364 kts | 154° |
| 2026-05-05 18:53 | 44.84462 | 8.12322 | 19423 ft | 367 kts | 154° |
| 2026-05-05 18:54 | 44.82262 | 8.14167 | 20028 ft | 370 kts | 155° |
| 2026-05-05 18:54 | 44.80042 | 8.16027 | 20626 ft | 373 kts | 155° |
| 2026-05-05 18:54 | 44.77804 | 8.17901 | 21215 ft | 376 kts | 155° |
| 2026-05-05 18:54 | 44.75549 | 8.19786 | 21802 ft | 379 kts | 155° |
| 2026-05-05 18:55 | 44.73274 | 8.21687 | 22353 ft | 382 kts | 155° |
| 2026-05-05 18:55 | 44.70980 | 8.23600 | 22900 ft | 385 kts | 155° |
| 2026-05-05 18:55 | 44.68670 | 8.25529 | 23444 ft | 387 kts | 156° |
| 2026-05-05 18:55 | 44.66348 | 8.27465 | 23925 ft | 390 kts | 156° |
| 2026-05-05 18:56 | 44.64002 | 8.29417 | 24368 ft | 393 kts | 156° |
| 2026-05-05 18:56 | 44.61641 | 8.31381 | 24799 ft | 396 kts | 156° |
| 2026-05-05 18:56 | 44.59264 | 8.33357 | 25272 ft | 397 kts | 156° |
| 2026-05-05 18:56 | 44.56874 | 8.35341 | 25666 ft | 401 kts | 157° |
| 2026-05-05 18:57 | 44.54462 | 8.37342 | 26064 ft | 405 kts | 157° |
| 2026-05-05 18:57 | 44.52029 | 8.39358 | 26491 ft | 407 kts | 157° |
| 2026-05-05 18:57 | 44.49584 | 8.41382 | 26900 ft | 410 kts | 158° |
| 2026-05-05 18:57 | 44.47120 | 8.43421 | 27302 ft | 412 kts | 158° |
| 2026-05-05 18:58 | 44.44642 | 8.45470 | 27678 ft | 415 kts | 158° |
| 2026-05-05 18:58 | 44.42145 | 8.47531 | 28065 ft | 418 kts | 158° |
| 2026-05-05 18:58 | 44.39642 | 8.49630 | 28450 ft | 423 kts | 155° |
| 2026-05-05 18:58 | 44.37255 | 8.52151 | 28815 ft | 434 kts | 149° |
| 2026-05-05 18:59 | 44.34936 | 8.54882 | 29180 ft | 438 kts | 149° |
| 2026-05-05 18:59 | 44.32612 | 8.57665 | 29505 ft | 442 kts | 148° |
| 2026-05-05 18:59 | 44.30305 | 8.60434 | 29827 ft | 444 kts | 149° |
| 2026-05-05 18:59 | 44.27953 | 8.63244 | 30130 ft | 446 kts | 149° |
| 2026-05-05 19:00 | 44.25554 | 8.66095 | 30420 ft | 448 kts | 149° |
| 2026-05-05 19:00 | 44.23205 | 8.68872 | 30709 ft | 449 kts | 149° |
| 2026-05-05 19:00 | 44.20817 | 8.71684 | 31010 ft | 450 kts | 149° |
| 2026-05-05 19:00 | 44.18425 | 8.74494 | 31387 ft | 449 kts | 149° |
| 2026-05-05 19:01 | 44.16046 | 8.77287 | 31813 ft | 446 kts | 150° |
| 2026-05-05 19:01 | 44.13679 | 8.80061 | 32227 ft | 444 kts | 150° |
| 2026-05-05 19:01 | 44.11319 | 8.82822 | 32588 ft | 443 kts | 150° |
| 2026-05-05 19:01 | 44.08958 | 8.85578 | 32933 ft | 443 kts | 150° |
| 2026-05-05 19:02 | 44.06602 | 8.88324 | 33286 ft | 442 kts | 150° |
| 2026-05-05 19:02 | 44.04251 | 8.91064 | 33662 ft | 440 kts | 150° |
| 2026-05-05 19:02 | 44.01908 | 8.93792 | 33998 ft | 439 kts | 150° |
| 2026-05-05 19:02 | 43.99567 | 8.96513 | 34250 ft | 440 kts | 150° |
| 2026-05-05 19:03 | 43.97216 | 8.99240 | 34440 ft | 441 kts | 150° |
| 2026-05-05 19:03 | 43.94853 | 9.01980 | 34642 ft | 443 kts | 150° |
| 2026-05-05 19:03 | 43.92491 | 9.04715 | 34881 ft | 443 kts | 150° |
| 2026-05-05 19:03 | 43.90124 | 9.07457 | 35130 ft | 443 kts | 149° |
| 2026-05-05 19:04 | 43.87757 | 9.10195 | 35340 ft | 444 kts | 149° |
| 2026-05-05 19:04 | 43.85383 | 9.12938 | 35543 ft | 445 kts | 149° |
| 2026-05-05 19:04 | 43.83005 | 9.15683 | 35769 ft | 445 kts | 149° |
| 2026-05-05 19:04 | 43.80623 | 9.18430 | 35990 ft | 446 kts | 149° |
| 2026-05-05 19:05 | 43.78239 | 9.21176 | 36200 ft | 446 kts | 149° |
| 2026-05-05 19:05 | 43.75852 | 9.23923 | 36418 ft | 446 kts | 149° |
| 2026-05-05 19:05 | 43.73465 | 9.26667 | 36629 ft | 447 kts | 149° |
| 2026-05-05 19:05 | 43.71075 | 9.29410 | 36831 ft | 447 kts | 149° |
| 2026-05-05 19:06 | 43.68679 | 9.32157 | 36963 ft | 449 kts | 149° |
| 2026-05-05 19:06 | 43.66265 | 9.34920 | 36946 ft | 451 kts | 149° |
| 2026-05-05 19:06 | 43.61448 | 9.40434 | 36941 ft | 448 kts | 149° |
| 2026-05-05 19:07 | 43.57472 | 9.44978 | 36946 ft | 446 kts | 149° |
| 2026-05-05 19:07 | 43.51900 | 9.51325 | 36946 ft | 443 kts | 149° |
| 2026-05-05 19:08 | 43.47152 | 9.56718 | 36954 ft | 444 kts | 149° |
| 2026-05-05 19:08 | 43.42346 | 9.62160 | 36969 ft | 451 kts | 149° |
| 2026-05-05 19:09 | 43.37476 | 9.67671 | 36960 ft | 455 kts | 149° |
| 2026-05-05 19:09 | 43.32576 | 9.73211 | 36962 ft | 457 kts | 148° |
| 2026-05-05 19:10 | 43.27703 | 9.78711 | 36947 ft | 450 kts | 149° |
| 2026-05-05 19:10 | 43.22883 | 9.84150 | 36957 ft | 448 kts | 148° |
| 2026-05-05 19:11 | 43.18032 | 9.89492 | 36958 ft | 445 kts | 155° |
| 2026-05-05 19:11 | 43.13632 | 9.93064 | 36966 ft | 443 kts | 159° |
| 2026-05-05 19:12 | 43.08239 | 9.97183 | 36968 ft | 446 kts | 159° |
| 2026-05-05 19:12 | 43.02815 | 10.01356 | 36960 ft | 448 kts | 158° |
| 2026-05-05 19:13 | 42.97450 | 10.05540 | 36945 ft | 440 kts | 158° |
| 2026-05-05 19:13 | 42.92164 | 10.09670 | 36967 ft | 437 kts | 158° |
| 2026-05-05 19:14 | 42.86887 | 10.13780 | 36954 ft | 437 kts | 158° |
| 2026-05-05 19:14 | 42.81607 | 10.17883 | 36964 ft | 437 kts | 158° |
| 2026-05-05 19:15 | 42.76325 | 10.21980 | 36972 ft | 438 kts | 159° |
| 2026-05-05 19:15 | 42.71057 | 10.26058 | 36960 ft | 439 kts | 158° |
| 2026-05-05 19:16 | 42.65705 | 10.30195 | 36968 ft | 440 kts | 158° |
| 2026-05-05 19:16 | 42.60413 | 10.34277 | 36968 ft | 441 kts | 158° |
| 2026-05-05 19:17 | 42.55070 | 10.38391 | 36968 ft | 442 kts | 158° |
| 2026-05-05 19:17 | 42.49721 | 10.42500 | 36968 ft | 442 kts | 158° |
| 2026-05-05 19:18 | 42.44363 | 10.46609 | 36970 ft | 442 kts | 158° |
| 2026-05-05 19:18 | 42.39005 | 10.50710 | 36968 ft | 442 kts | 158° |
| 2026-05-05 19:19 | 42.33647 | 10.54803 | 36973 ft | 442 kts | 158° |
| 2026-05-05 19:19 | 42.28293 | 10.58884 | 36972 ft | 442 kts | 158° |
| 2026-05-05 19:20 | 42.22941 | 10.62956 | 36974 ft | 441 kts | 158° |
| 2026-05-05 19:20 | 42.17587 | 10.67022 | 36974 ft | 441 kts | 158° |
| 2026-05-05 19:21 | 42.12239 | 10.71076 | 36982 ft | 441 kts | 158° |
| 2026-05-05 19:21 | 42.06879 | 10.75130 | 36982 ft | 442 kts | 158° |
| 2026-05-05 19:22 | 42.01387 | 10.78631 | 36994 ft | 434 kts | 166° |
| 2026-05-05 19:22 | 41.95757 | 10.81547 | 36979 ft | 433 kts | 167° |
| 2026-05-05 19:23 | 41.90126 | 10.84458 | 36986 ft | 434 kts | 166° |
| 2026-05-05 19:23 | 41.84539 | 10.87401 | 36989 ft | 435 kts | 166° |
| 2026-05-05 19:24 | 41.78906 | 10.90389 | 36991 ft | 435 kts | 166° |
| 2026-05-05 19:24 | 41.73267 | 10.93378 | 36992 ft | 436 kts | 166° |
| 2026-05-05 19:25 | 41.67622 | 10.96363 | 36998 ft | 437 kts | 166° |
| 2026-05-05 19:25 | 41.61964 | 10.99348 | 36996 ft | 437 kts | 165° |
| 2026-05-05 19:26 | 41.56297 | 11.02333 | 36989 ft | 438 kts | 165° |
| 2026-05-05 19:26 | 41.50618 | 11.05320 | 37004 ft | 439 kts | 165° |
| 2026-05-05 19:27 | 41.44924 | 11.08307 | 36998 ft | 440 kts | 165° |
| 2026-05-05 19:27 | 41.39227 | 11.11295 | 37003 ft | 441 kts | 165° |
| 2026-05-05 19:28 | 41.33517 | 11.14287 | 37004 ft | 441 kts | 165° |
| 2026-05-05 19:28 | 41.27807 | 11.17273 | 37003 ft | 441 kts | 165° |
| 2026-05-05 19:29 | 41.22090 | 11.20257 | 37007 ft | 441 kts | 165° |
| 2026-05-05 19:29 | 41.16379 | 11.23233 | 37004 ft | 441 kts | 165° |
| 2026-05-05 19:30 | 41.10663 | 11.26205 | 37004 ft | 441 kts | 165° |
| 2026-05-05 19:30 | 41.04961 | 11.29165 | 37010 ft | 440 kts | 165° |
| 2026-05-05 19:31 | 40.99262 | 11.32118 | 37011 ft | 439 kts | 165° |
| 2026-05-05 19:31 | 40.93570 | 11.35061 | 37007 ft | 439 kts | 164° |
| 2026-05-05 19:32 | 40.87883 | 11.37998 | 37016 ft | 439 kts | 164° |
| 2026-05-05 19:32 | 40.82237 | 11.40906 | 37010 ft | 438 kts | 164° |
| 2026-05-05 19:33 | 40.76550 | 11.43826 | 37013 ft | 439 kts | 164° |
| 2026-05-05 19:33 | 40.70858 | 11.46746 | 37024 ft | 439 kts | 164° |
| 2026-05-05 19:34 | 40.65127 | 11.49680 | 37022 ft | 439 kts | 164° |
| 2026-05-05 19:35 | 40.56621 | 11.54027 | 37032 ft | 439 kts | 164° |
| 2026-05-05 19:35 | 40.50923 | 11.56932 | 37029 ft | 439 kts | 164° |
| 2026-05-05 19:36 | 40.45227 | 11.59832 | 37022 ft | 439 kts | 164° |
| 2026-05-05 19:36 | 40.39532 | 11.62726 | 37026 ft | 438 kts | 164° |
| 2026-05-05 19:37 | 40.33854 | 11.65604 | 37022 ft | 436 kts | 164° |
| 2026-05-05 19:37 | 40.28245 | 11.68443 | 37021 ft | 429 kts | 164° |
| 2026-05-05 19:38 | 40.22673 | 11.71256 | 36762 ft | 430 kts | 164° |
| 2026-05-05 19:38 | 40.19903 | 11.72654 | 36497 ft | 423 kts | 164° |
| 2026-05-05 19:38 | 40.17169 | 11.74033 | 36096 ft | 419 kts | 164° |
| 2026-05-05 19:38 | 40.14464 | 11.75397 | 35734 ft | 415 kts | 164° |
| 2026-05-05 19:39 | 40.11776 | 11.76749 | 35340 ft | 412 kts | 164° |
| 2026-05-05 19:39 | 40.09107 | 11.78090 | 34959 ft | 409 kts | 164° |
| 2026-05-05 19:39 | 40.06458 | 11.79420 | 34582 ft | 407 kts | 164° |
| 2026-05-05 19:39 | 40.03820 | 11.80740 | 34150 ft | 406 kts | 164° |
| 2026-05-05 19:40 | 40.01188 | 11.82051 | 33730 ft | 404 kts | 164° |
| 2026-05-05 19:40 | 39.98571 | 11.83352 | 33320 ft | 401 kts | 164° |
| 2026-05-05 19:40 | 39.95975 | 11.84643 | 32934 ft | 398 kts | 164° |
| 2026-05-05 19:40 | 39.93393 | 11.85927 | 32561 ft | 395 kts | 164° |
| 2026-05-05 19:41 | 39.90833 | 11.87199 | 32195 ft | 393 kts | 164° |
| 2026-05-05 19:41 | 39.88282 | 11.88423 | 31830 ft | 388 kts | 169° |
| 2026-05-05 19:41 | 39.85684 | 11.89188 | 31449 ft | 379 kts | 179° |
| 2026-05-05 19:41 | 39.83075 | 11.89407 | 31060 ft | 374 kts | 183° |
| 2026-05-05 19:42 | 39.80480 | 11.89516 | 30699 ft | 372 kts | 184° |
| 2026-05-05 19:42 | 39.77904 | 11.89606 | 30350 ft | 370 kts | 184° |
| 2026-05-05 19:42 | 39.75339 | 11.89698 | 29976 ft | 368 kts | 184° |
| 2026-05-05 19:42 | 39.72785 | 11.89796 | 29569 ft | 366 kts | 184° |
| 2026-05-05 19:43 | 39.70254 | 11.89901 | 29200 ft | 362 kts | 184° |
| 2026-05-05 19:43 | 39.67746 | 11.90010 | 28828 ft | 359 kts | 184° |
| 2026-05-05 19:43 | 39.65254 | 11.90122 | 28478 ft | 356 kts | 184° |
| 2026-05-05 19:43 | 39.62785 | 11.90235 | 28116 ft | 353 kts | 184° |
| 2026-05-05 19:44 | 39.60350 | 11.90463 | 27498 ft | 357 kts | 178° |
| 2026-05-05 19:44 | 39.57860 | 11.90983 | 26669 ft | 364 kts | 176° |
| 2026-05-05 19:44 | 39.55356 | 11.91589 | 26053 ft | 364 kts | 175° |
| 2026-05-05 19:44 | 39.52877 | 11.92212 | 25634 ft | 360 kts | 175° |
| 2026-05-05 19:45 | 39.50449 | 11.92816 | 25266 ft | 359 kts | 175° |
| 2026-05-05 19:45 | 39.47996 | 11.93415 | 24900 ft | 357 kts | 175° |
| 2026-05-05 19:45 | 39.45548 | 11.94002 | 24540 ft | 355 kts | 176° |
| 2026-05-05 19:45 | 39.43112 | 11.94578 | 24165 ft | 354 kts | 176° |
| 2026-05-05 19:46 | 39.40720 | 11.95139 | 23815 ft | 353 kts | 176° |
| 2026-05-05 19:46 | 39.38297 | 11.95703 | 23411 ft | 353 kts | 176° |
| 2026-05-05 19:46 | 39.35881 | 11.96263 | 23022 ft | 351 kts | 176° |
| 2026-05-05 19:46 | 39.33485 | 11.96818 | 22650 ft | 348 kts | 176° |
| 2026-05-05 19:47 | 39.31126 | 11.97364 | 22294 ft | 346 kts | 176° |
| 2026-05-05 19:47 | 39.28762 | 11.97911 | 21940 ft | 343 kts | 175° |
| 2026-05-05 19:47 | 39.26412 | 11.98453 | 21594 ft | 340 kts | 175° |
| 2026-05-05 19:47 | 39.24113 | 11.98983 | 21257 ft | 338 kts | 175° |
| 2026-05-05 19:48 | 39.21796 | 11.99517 | 20915 ft | 336 kts | 175° |
| 2026-05-05 19:48 | 39.19505 | 12.00044 | 20575 ft | 334 kts | 175° |
| 2026-05-05 19:48 | 39.17224 | 12.00569 | 20239 ft | 332 kts | 175° |
| 2026-05-05 19:48 | 39.14970 | 12.01087 | 19907 ft | 330 kts | 174° |
| 2026-05-05 19:49 | 39.12710 | 12.01606 | 19567 ft | 328 kts | 174° |
| 2026-05-05 19:49 | 39.11218 | 12.01948 | 19360 ft | 327 kts | 174° |
| 2026-05-05 19:49 | 39.08225 | 12.02635 | 18911 ft | 325 kts | 174° |
| 2026-05-05 19:49 | 39.06001 | 12.03145 | 18578 ft | 324 kts | 174° |
| 2026-05-05 19:50 | 39.03783 | 12.03653 | 18240 ft | 323 kts | 174° |
| 2026-05-05 19:50 | 39.01602 | 12.04153 | 17865 ft | 321 kts | 174° |
| 2026-05-05 19:50 | 38.99400 | 12.04657 | 17509 ft | 320 kts | 174° |
| 2026-05-05 19:50 | 38.97220 | 12.05156 | 17170 ft | 318 kts | 174° |
| 2026-05-05 19:51 | 38.95041 | 12.05654 | 16837 ft | 315 kts | 174° |
| 2026-05-05 19:51 | 38.92883 | 12.06148 | 16510 ft | 313 kts | 174° |
| 2026-05-05 19:51 | 38.90765 | 12.06631 | 16187 ft | 312 kts | 174° |
| 2026-05-05 19:51 | 38.88639 | 12.07117 | 15868 ft | 310 kts | 174° |
| 2026-05-05 19:52 | 38.86516 | 12.07601 | 15549 ft | 309 kts | 174° |
| 2026-05-05 19:52 | 38.84402 | 12.08083 | 15226 ft | 307 kts | 174° |
| 2026-05-05 19:52 | 38.82297 | 12.08562 | 14904 ft | 306 kts | 174° |
| 2026-05-05 19:52 | 38.80228 | 12.09033 | 14593 ft | 305 kts | 174° |
| 2026-05-05 19:53 | 38.78137 | 12.09508 | 14277 ft | 304 kts | 174° |
| 2026-05-05 19:53 | 38.76050 | 12.09983 | 13950 ft | 304 kts | 174° |
| 2026-05-05 19:53 | 38.73963 | 12.10457 | 13590 ft | 304 kts | 174° |
| 2026-05-05 19:53 | 38.71888 | 12.10928 | 13254 ft | 302 kts | 174° |
| 2026-05-05 19:54 | 38.69845 | 12.11392 | 12922 ft | 300 kts | 174° |
| 2026-05-05 19:54 | 38.67788 | 12.11859 | 12608 ft | 299 kts | 174° |
| 2026-05-05 19:54 | 38.65748 | 12.12321 | 12290 ft | 297 kts | 174° |
| 2026-05-05 19:54 | 38.63723 | 12.12780 | 11992 ft | 295 kts | 173° |
| 2026-05-05 19:55 | 38.61704 | 12.13237 | 11677 ft | 293 kts | 173° |
| 2026-05-05 19:55 | 38.59700 | 12.13691 | 11376 ft | 292 kts | 173° |
| 2026-05-05 19:55 | 38.57703 | 12.14143 | 11063 ft | 290 kts | 173° |
| 2026-05-05 19:55 | 38.55718 | 12.14591 | 10766 ft | 289 kts | 173° |
| 2026-05-05 19:56 | 38.53742 | 12.15038 | 10458 ft | 287 kts | 173° |
| 2026-05-05 19:56 | 38.51798 | 12.15477 | 10187 ft | 285 kts | 173° |
| 2026-05-05 19:56 | 38.49870 | 12.15913 | 10055 ft | 277 kts | 173° |
| 2026-05-05 19:56 | 38.47967 | 12.16342 | 9730 ft | 277 kts | 173° |
| 2026-05-05 19:57 | 38.46068 | 12.16770 | 9433 ft | 275 kts | 173° |
| 2026-05-05 19:57 | 38.44823 | 12.17051 | 9239 ft | 274 kts | 173° |
| 2026-05-05 19:57 | 38.42950 | 12.17473 | 8950 ft | 272 kts | 172° |
| 2026-05-05 19:57 | 38.40482 | 12.18028 | 8568 ft | 270 kts | 172° |
| 2026-05-05 19:58 | 38.38633 | 12.18444 | 8283 ft | 269 kts | 172° |
| 2026-05-05 19:58 | 38.36795 | 12.18857 | 8002 ft | 267 kts | 172° |
| 2026-05-05 19:58 | 38.35580 | 12.19130 | 7823 ft | 267 kts | 172° |
| 2026-05-05 19:58 | 38.33751 | 12.19541 | 7541 ft | 265 kts | 172° |
| 2026-05-05 19:59 | 38.31934 | 12.19949 | 7262 ft | 264 kts | 172° |
| 2026-05-05 19:59 | 38.29540 | 12.20486 | 6894 ft | 263 kts | 172° |
| 2026-05-05 19:59 | 38.27740 | 12.20890 | 6618 ft | 262 kts | 172° |
| 2026-05-05 19:59 | 38.26526 | 12.21162 | 6424 ft | 261 kts | 172° |
| 2026-05-05 20:00 | 38.24737 | 12.21563 | 6145 ft | 260 kts | 172° |
| 2026-05-05 20:00 | 38.22959 | 12.21961 | 5859 ft | 258 kts | 172° |
| 2026-05-05 20:00 | 38.21197 | 12.22356 | 5598 ft | 256 kts | 171° |
| 2026-05-05 20:00 | 38.19444 | 12.22748 | 5339 ft | 254 kts | 171° |
| 2026-05-05 20:01 | 38.17711 | 12.23136 | 5085 ft | 252 kts | 171° |
| 2026-05-05 20:01 | 38.16011 | 12.23516 | 4825 ft | 251 kts | 171° |
| 2026-05-05 20:01 | 38.14297 | 12.23899 | 4559 ft | 249 kts | 170° |
| 2026-05-05 20:01 | 38.12621 | 12.24273 | 4470 ft | 240 kts | 171° |
| 2026-05-05 20:02 | 38.11001 | 12.24635 | 4353 ft | 232 kts | 170° |
| 2026-05-05 20:02 | 38.09436 | 12.24985 | 4252 ft | 223 kts | 170° |
| 2026-05-05 20:02 | 38.07930 | 12.25321 | 4167 ft | 215 kts | 170° |
| 2026-05-05 20:02 | 38.06502 | 12.25736 | 4056 ft | 208 kts | 155° |
| 2026-05-05 20:03 | 38.05413 | 12.26913 | 3959 ft | 205 kts | 136° |
| 2026-05-05 20:03 | 38.04415 | 12.28196 | 3808 ft | 210 kts | 136° |
| 2026-05-05 20:03 | 38.03435 | 12.29593 | 3568 ft | 215 kts | 133° |
| 2026-05-05 20:03 | 38.02484 | 12.31058 | 3317 ft | 216 kts | 131° |
| 2026-05-05 20:04 | 38.01530 | 12.32547 | 3024 ft | 217 kts | 131° |
| 2026-05-05 20:04 | 38.00573 | 12.34039 | 2735 ft | 218 kts | 132° |
| 2026-05-05 20:04 | 37.99614 | 12.35531 | 2435 ft | 219 kts | 132° |
| 2026-05-05 20:04 | 37.98654 | 12.37026 | 2130 ft | 215 kts | 132° |
| 2026-05-05 20:05 | 37.97743 | 12.38446 | 1873 ft | 204 kts | 131° |
| 2026-05-05 20:05 | 37.96879 | 12.39793 | 1591 ft | 187 kts | 131° |
| 2026-05-05 20:05 | 37.96100 | 12.41007 | 1360 ft | 168 kts | 132° |
| 2026-05-05 20:05 | 37.95394 | 12.42107 | 1148 ft | 153 kts | 132° |
| 2026-05-05 20:06 | 37.94765 | 12.43086 | 945 ft | 138 kts | 131° |
| 2026-05-05 20:06 | 37.94168 | 12.44016 | 788 ft | 136 kts | 132° |
| 2026-05-05 20:06 | 37.93565 | 12.44955 | 612 ft | 139 kts | 131° |
| 2026-05-05 20:06 | 37.92948 | 12.45903 | 411 ft | 137 kts | 131° |
| 2026-05-05 20:07 | 37.92361 | 12.46817 | 228 ft | 136 kts | 130° |
| 2026-05-05 20:07 | 37.91780 | 12.47769 | 33 ft | 137 kts | 130° |
| 2026-05-05 20:07 | 37.91274 | 12.48582 | 29 ft | 89 kts | 127° |
| 2026-05-05 20:07 | 37.90987 | 12.49049 | 27 ft | 59 kts | 128° |
| 2026-05-05 20:08 | 37.90826 | 12.49306 | 29 ft | 28 kts | 131° |
| 2026-05-05 20:08 | 37.90672 | 12.49443 | 32 ft | 26 kts | 156° |
| 2026-05-05 20:08 | 37.90507 | 12.49528 | 31 ft | 25 kts | 157° |
| 2026-05-05 20:08 | 37.90374 | 12.49553 | 32 ft | 10 kts | 192° |
| 2026-05-05 20:09 | 37.90346 | 12.49526 | 31 ft | 0 kts | 231° |